sensor_id;sensor_type;location;lat;lon;timestamp;temperature;humidity
31133;DHT22;17779;50.942;4.026;2022-07-10T00:01:22;16.00;99.90
31133;DHT22;17779;50.942;4.026;2022-07-10T00:03:47;15.90;99.90
31133;DHT22;17779;50.942;4.026;2022-07-10T00:06:15;15.90;99.90
31133;DHT22;17779;50.942;4.026;2022-07-10T00:08:41;15.80;99.90
31133;DHT22;17779;50.942;4.026;2022-07-10T00:11:08;15.70;99.90
31133;DHT22;17779;50.942;4.026;2022-07-10T00:13:34;15.80;99.90
31133;DHT22;17779;50.942;4.026;2022-07-10T00:16:00;15.80;99.90
31133;DHT22;17779;50.942;4.026;2022-07-10T00:18:27;15.80;99.90
31133;DHT22;17779;50.942;4.026;2022-07-10T00:20:53;15.80;99.90
31133;DHT22;17779;50.942;4.026;2022-07-10T00:23:19;15.80;99.90
31133;DHT22;17779;50.942;4.026;2022-07-10T00:25:45;15.60;99.90
31133;DHT22;17779;50.942;4.026;2022-07-10T00:28:10;15.50;99.90
31133;DHT22;17779;50.942;4.026;2022-07-10T00:30:37;15.50;99.90
31133;DHT22;17779;50.942;4.026;2022-07-10T00:33:03;15.40;99.90
31133;DHT22;17779;50.942;4.026;2022-07-10T00:35:28;15.30;99.90
31133;DHT22;17779;50.942;4.026;2022-07-10T00:37:54;15.20;99.90
31133;DHT22;17779;50.942;4.026;2022-07-10T00:40:20;15.10;99.90
31133;DHT22;17779;50.942;4.026;2022-07-10T00:42:46;15.10;99.90
31133;DHT22;17779;50.942;4.026;2022-07-10T00:45:12;15.10;99.90
31133;DHT22;17779;50.942;4.026;2022-07-10T00:47:38;15.20;99.90
31133;DHT22;17779;50.942;4.026;2022-07-10T00:50:04;15.30;99.90
31133;DHT22;17779;50.942;4.026;2022-07-10T00:52:30;15.20;99.90
31133;DHT22;17779;50.942;4.026;2022-07-10T00:54:56;15.10;99.90
31133;DHT22;17779;50.942;4.026;2022-07-10T00:57:22;15.00;99.90
31133;DHT22;17779;50.942;4.026;2022-07-10T00:59:48;14.90;99.90
31133;DHT22;17779;50.942;4.026;2022-07-10T01:02:14;14.90;99.90
31133;DHT22;17779;50.942;4.026;2022-07-10T01:04:41;15.00;99.90
31133;DHT22;17779;50.942;4.026;2022-07-10T01:07:07;15.00;99.90
31133;DHT22;17779;50.942;4.026;2022-07-10T01:09:33;15.00;99.90
31133;DHT22;17779;50.942;4.026;2022-07-10T01:12:02;15.10;99.90
31133;DHT22;17779;50.942;4.026;2022-07-10T01:14:29;15.10;99.90
31133;DHT22;17779;50.942;4.026;2022-07-10T01:16:56;15.30;99.90
31133;DHT22;17779;50.942;4.026;2022-07-10T01:19:22;15.50;99.90
31133;DHT22;17779;50.942;4.026;2022-07-10T01:21:48;15.70;99.90
31133;DHT22;17779;50.942;4.026;2022-07-10T01:24:13;15.60;99.90
31133;DHT22;17779;50.942;4.026;2022-07-10T01:26:39;15.60;99.90
31133;DHT22;17779;50.942;4.026;2022-07-10T01:29:08;15.50;99.90
31133;DHT22;17779;50.942;4.026;2022-07-10T01:31:34;15.40;99.90
31133;DHT22;17779;50.942;4.026;2022-07-10T01:34:01;15.20;99.90
31133;DHT22;17779;50.942;4.026;2022-07-10T01:36:30;15.30;99.90
31133;DHT22;17779;50.942;4.026;2022-07-10T01:38:56;15.20;99.90
31133;DHT22;17779;50.942;4.026;2022-07-10T01:41:22;15.20;99.90
31133;DHT22;17779;50.942;4.026;2022-07-10T01:43:49;15.30;99.90
31133;DHT22;17779;50.942;4.026;2022-07-10T01:46:15;15.30;99.90
31133;DHT22;17779;50.942;4.026;2022-07-10T01:48:41;15.50;99.90
31133;DHT22;17779;50.942;4.026;2022-07-10T01:51:07;15.50;99.90
31133;DHT22;17779;50.942;4.026;2022-07-10T01:53:33;15.40;99.90
31133;DHT22;17779;50.942;4.026;2022-07-10T01:56:03;15.30;99.90
31133;DHT22;17779;50.942;4.026;2022-07-10T01:58:30;15.20;99.90
31133;DHT22;17779;50.942;4.026;2022-07-10T02:00:56;15.20;99.90
31133;DHT22;17779;50.942;4.026;2022-07-10T02:03:22;15.20;99.90
31133;DHT22;17779;50.942;4.026;2022-07-10T02:06:17;15.30;99.90
31133;DHT22;17779;50.942;4.026;2022-07-10T02:08:42;15.40;99.90
31133;DHT22;17779;50.942;4.026;2022-07-10T02:11:08;15.50;99.90
31133;DHT22;17779;50.942;4.026;2022-07-10T02:13:34;15.50;99.90
31133;DHT22;17779;50.942;4.026;2022-07-10T02:16:00;15.50;99.90
31133;DHT22;17779;50.942;4.026;2022-07-10T02:18:25;15.30;99.90
31133;DHT22;17779;50.942;4.026;2022-07-10T02:20:51;15.30;99.90
31133;DHT22;17779;50.942;4.026;2022-07-10T02:23:17;15.10;99.90
31133;DHT22;17779;50.942;4.026;2022-07-10T02:25:43;15.00;99.90
31133;DHT22;17779;50.942;4.026;2022-07-10T02:28:10;15.00;99.90
31133;DHT22;17779;50.942;4.026;2022-07-10T02:30:36;15.10;99.90
31133;DHT22;17779;50.942;4.026;2022-07-10T02:33:02;15.20;99.90
31133;DHT22;17779;50.942;4.026;2022-07-10T02:35:28;15.40;99.90
31133;DHT22;17779;50.942;4.026;2022-07-10T02:37:53;15.40;99.90
31133;DHT22;17779;50.942;4.026;2022-07-10T02:40:19;15.30;99.90
31133;DHT22;17779;50.942;4.026;2022-07-10T02:42:45;15.40;99.90
31133;DHT22;17779;50.942;4.026;2022-07-10T02:45:11;15.50;99.90
31133;DHT22;17779;50.942;4.026;2022-07-10T02:47:37;15.50;99.90
31133;DHT22;17779;50.942;4.026;2022-07-10T02:50:02;15.50;99.90
31133;DHT22;17779;50.942;4.026;2022-07-10T02:52:28;15.50;99.90
31133;DHT22;17779;50.942;4.026;2022-07-10T02:54:56;15.40;99.90
31133;DHT22;17779;50.942;4.026;2022-07-10T02:57:22;15.30;99.90
31133;DHT22;17779;50.942;4.026;2022-07-10T02:59:48;15.40;99.90
31133;DHT22;17779;50.942;4.026;2022-07-10T03:02:15;15.40;99.90
31133;DHT22;17779;50.942;4.026;2022-07-10T03:04:40;15.30;99.90
31133;DHT22;17779;50.942;4.026;2022-07-10T03:07:06;15.10;99.90
31133;DHT22;17779;50.942;4.026;2022-07-10T03:09:32;14.90;99.90
31133;DHT22;17779;50.942;4.026;2022-07-10T03:11:58;15.00;99.90
31133;DHT22;17779;50.942;4.026;2022-07-10T03:14:24;15.20;99.90
31133;DHT22;17779;50.942;4.026;2022-07-10T03:16:50;15.20;99.90
31133;DHT22;17779;50.942;4.026;2022-07-10T03:19:16;15.20;99.90
31133;DHT22;17779;50.942;4.026;2022-07-10T03:21:41;15.00;99.90
31133;DHT22;17779;50.942;4.026;2022-07-10T03:24:07;14.80;99.90
31133;DHT22;17779;50.942;4.026;2022-07-10T03:26:33;14.70;99.90
31133;DHT22;17779;50.942;4.026;2022-07-10T03:28:59;14.80;99.90
31133;DHT22;17779;50.942;4.026;2022-07-10T03:31:24;15.00;99.90
31133;DHT22;17779;50.942;4.026;2022-07-10T03:33:50;15.00;99.90
31133;DHT22;17779;50.942;4.026;2022-07-10T03:36:18;15.00;99.90
31133;DHT22;17779;50.942;4.026;2022-07-10T03:38:44;15.20;99.90
31133;DHT22;17779;50.942;4.026;2022-07-10T03:41:12;15.20;99.90
31133;DHT22;17779;50.942;4.026;2022-07-10T03:43:38;15.10;99.90
31133;DHT22;17779;50.942;4.026;2022-07-10T03:46:03;15.10;99.90
31133;DHT22;17779;50.942;4.026;2022-07-10T03:48:29;15.10;99.90
31133;DHT22;17779;50.942;4.026;2022-07-10T03:50:55;15.20;99.90
31133;DHT22;17779;50.942;4.026;2022-07-10T03:53:21;15.30;99.90
31133;DHT22;17779;50.942;4.026;2022-07-10T03:55:47;15.00;99.90
31133;DHT22;17779;50.942;4.026;2022-07-10T03:58:12;15.00;99.90
31133;DHT22;17779;50.942;4.026;2022-07-10T04:00:38;14.80;99.90
31133;DHT22;17779;50.942;4.026;2022-07-10T04:03:06;14.70;99.90
31133;DHT22;17779;50.942;4.026;2022-07-10T04:05:32;14.70;99.90
31133;DHT22;17779;50.942;4.026;2022-07-10T04:07:58;14.60;99.90
31133;DHT22;17779;50.942;4.026;2022-07-10T04:10:25;14.60;99.90
31133;DHT22;17779;50.942;4.026;2022-07-10T04:12:51;14.60;99.90
31133;DHT22;17779;50.942;4.026;2022-07-10T04:15:17;14.80;99.90
31133;DHT22;17779;50.942;4.026;2022-07-10T04:17:44;14.70;99.90
31133;DHT22;17779;50.942;4.026;2022-07-10T04:20:10;14.70;99.90
31133;DHT22;17779;50.942;4.026;2022-07-10T04:22:36;14.70;99.90
31133;DHT22;17779;50.942;4.026;2022-07-10T04:25:02;14.80;99.90
31133;DHT22;17779;50.942;4.026;2022-07-10T04:27:28;14.80;99.90
31133;DHT22;17779;50.942;4.026;2022-07-10T04:29:54;14.70;99.90
31133;DHT22;17779;50.942;4.026;2022-07-10T04:32:20;14.70;99.90
31133;DHT22;17779;50.942;4.026;2022-07-10T04:34:47;14.70;99.90
31133;DHT22;17779;50.942;4.026;2022-07-10T04:37:13;14.70;99.90
31133;DHT22;17779;50.942;4.026;2022-07-10T04:39:39;14.50;99.90
31133;DHT22;17779;50.942;4.026;2022-07-10T04:42:06;14.50;99.90
31133;DHT22;17779;50.942;4.026;2022-07-10T04:44:32;14.50;99.90
31133;DHT22;17779;50.942;4.026;2022-07-10T04:46:58;14.50;99.90
31133;DHT22;17779;50.942;4.026;2022-07-10T04:49:25;14.70;99.90
31133;DHT22;17779;50.942;4.026;2022-07-10T04:51:51;15.00;99.90
31133;DHT22;17779;50.942;4.026;2022-07-10T04:54:17;15.10;99.90
31133;DHT22;17779;50.942;4.026;2022-07-10T04:56:43;15.30;99.90
31133;DHT22;17779;50.942;4.026;2022-07-10T04:59:11;15.40;99.90
31133;DHT22;17779;50.942;4.026;2022-07-10T05:01:37;15.40;99.90
31133;DHT22;17779;50.942;4.026;2022-07-10T05:04:03;15.40;99.90
31133;DHT22;17779;50.942;4.026;2022-07-10T05:06:29;15.20;99.90
31133;DHT22;17779;50.942;4.026;2022-07-10T05:08:55;15.10;99.90
31133;DHT22;17779;50.942;4.026;2022-07-10T05:11:21;15.00;99.90
31133;DHT22;17779;50.942;4.026;2022-07-10T05:13:47;15.10;99.90
31133;DHT22;17779;50.942;4.026;2022-07-10T05:16:17;15.20;99.90
31133;DHT22;17779;50.942;4.026;2022-07-10T05:18:43;15.30;99.90
31133;DHT22;17779;50.942;4.026;2022-07-10T05:21:09;15.40;99.90
31133;DHT22;17779;50.942;4.026;2022-07-10T05:23:35;15.50;99.90
31133;DHT22;17779;50.942;4.026;2022-07-10T05:26:01;15.60;99.90
31133;DHT22;17779;50.942;4.026;2022-07-10T05:28:26;15.70;99.90
31133;DHT22;17779;50.942;4.026;2022-07-10T05:30:52;16.00;99.90
31133;DHT22;17779;50.942;4.026;2022-07-10T05:33:19;16.10;99.90
31133;DHT22;17779;50.942;4.026;2022-07-10T05:35:44;16.20;99.90
31133;DHT22;17779;50.942;4.026;2022-07-10T05:38:10;16.20;99.90
31133;DHT22;17779;50.942;4.026;2022-07-10T05:40:36;16.10;99.90
31133;DHT22;17779;50.942;4.026;2022-07-10T05:43:03;16.10;99.90
31133;DHT22;17779;50.942;4.026;2022-07-10T05:45:29;16.20;99.90
31133;DHT22;17779;50.942;4.026;2022-07-10T05:47:55;16.20;99.90
31133;DHT22;17779;50.942;4.026;2022-07-10T05:50:21;16.30;99.90
31133;DHT22;17779;50.942;4.026;2022-07-10T05:52:46;16.40;99.90
31133;DHT22;17779;50.942;4.026;2022-07-10T05:55:13;16.60;99.90
31133;DHT22;17779;50.942;4.026;2022-07-10T05:57:40;16.80;99.90
31133;DHT22;17779;50.942;4.026;2022-07-10T06:00:06;16.90;99.90
31133;DHT22;17779;50.942;4.026;2022-07-10T06:02:32;17.20;99.90
31133;DHT22;17779;50.942;4.026;2022-07-10T06:04:58;17.50;99.90
31133;DHT22;17779;50.942;4.026;2022-07-10T06:07:25;17.50;99.90
31133;DHT22;17779;50.942;4.026;2022-07-10T06:09:51;17.70;99.90
31133;DHT22;17779;50.942;4.026;2022-07-10T06:12:17;17.70;99.90
31133;DHT22;17779;50.942;4.026;2022-07-10T06:14:43;17.60;99.90
31133;DHT22;17779;50.942;4.026;2022-07-10T06:17:09;17.60;99.90
31133;DHT22;17779;50.942;4.026;2022-07-10T06:19:34;17.50;99.90
31133;DHT22;17779;50.942;4.026;2022-07-10T06:22:00;17.60;99.90
31133;DHT22;17779;50.942;4.026;2022-07-10T06:24:44;17.90;99.90
31133;DHT22;17779;50.942;4.026;2022-07-10T06:27:10;18.00;99.90
31133;DHT22;17779;50.942;4.026;2022-07-10T06:29:36;18.10;99.90
31133;DHT22;17779;50.942;4.026;2022-07-10T06:32:02;18.20;99.90
31133;DHT22;17779;50.942;4.026;2022-07-10T06:34:28;18.30;99.90
31133;DHT22;17779;50.942;4.026;2022-07-10T06:36:54;18.40;99.90
31133;DHT22;17779;50.942;4.026;2022-07-10T06:39:20;18.50;99.90
31133;DHT22;17779;50.942;4.026;2022-07-10T06:41:45;18.20;99.90
31133;DHT22;17779;50.942;4.026;2022-07-10T06:44:11;18.30;99.90
31133;DHT22;17779;50.942;4.026;2022-07-10T06:46:37;18.50;99.90
31133;DHT22;17779;50.942;4.026;2022-07-10T06:49:03;18.70;99.90
31133;DHT22;17779;50.942;4.026;2022-07-10T06:51:28;19.00;99.90
31133;DHT22;17779;50.942;4.026;2022-07-10T06:53:55;19.30;99.90
31133;DHT22;17779;50.942;4.026;2022-07-10T06:56:21;19.40;99.90
31133;DHT22;17779;50.942;4.026;2022-07-10T06:58:46;19.70;99.90
31133;DHT22;17779;50.942;4.026;2022-07-10T07:01:12;19.80;99.90
31133;DHT22;17779;50.942;4.026;2022-07-10T07:03:38;20.20;99.90
31133;DHT22;17779;50.942;4.026;2022-07-10T07:06:03;20.40;99.90
31133;DHT22;17779;50.942;4.026;2022-07-10T07:08:29;20.60;99.90
31133;DHT22;17779;50.942;4.026;2022-07-10T07:10:55;20.50;99.90
31133;DHT22;17779;50.942;4.026;2022-07-10T07:13:21;20.80;99.90
31133;DHT22;17779;50.942;4.026;2022-07-10T07:15:47;20.70;99.90
31133;DHT22;17779;50.942;4.026;2022-07-10T07:18:23;20.60;99.90
31133;DHT22;17779;50.942;4.026;2022-07-10T07:21:00;20.80;99.90
31133;DHT22;17779;50.942;4.026;2022-07-10T07:23:44;21.00;99.90
31133;DHT22;17779;50.942;4.026;2022-07-10T07:26:10;20.90;99.90
31133;DHT22;17779;50.942;4.026;2022-07-10T07:28:36;20.80;99.90
31133;DHT22;17779;50.942;4.026;2022-07-10T07:31:01;21.30;99.90
31133;DHT22;17779;50.942;4.026;2022-07-10T07:33:27;21.20;99.90
31133;DHT22;17779;50.942;4.026;2022-07-10T07:35:52;21.60;99.90
31133;DHT22;17779;50.942;4.026;2022-07-10T07:38:18;22.20;99.90
31133;DHT22;17779;50.942;4.026;2022-07-10T07:40:44;22.70;99.90
31133;DHT22;17779;50.942;4.026;2022-07-10T07:43:10;23.30;99.90
31133;DHT22;17779;50.942;4.026;2022-07-10T07:45:37;24.50;99.90
31133;DHT22;17779;50.942;4.026;2022-07-10T07:48:02;25.90;99.90
31133;DHT22;17779;50.942;4.026;2022-07-10T07:50:32;27.40;99.90
31133;DHT22;17779;50.942;4.026;2022-07-10T07:52:58;28.20;99.90
31133;DHT22;17779;50.942;4.026;2022-07-10T07:55:24;29.70;99.90
31133;DHT22;17779;50.942;4.026;2022-07-10T07:57:53;29.90;99.90
31133;DHT22;17779;50.942;4.026;2022-07-10T08:00:19;29.70;99.50
31133;DHT22;17779;50.942;4.026;2022-07-10T08:02:48;28.00;99.90
31133;DHT22;17779;50.942;4.026;2022-07-10T08:05:14;28.50;99.90
31133;DHT22;17779;50.942;4.026;2022-07-10T08:07:40;29.80;99.30
31133;DHT22;17779;50.942;4.026;2022-07-10T08:10:07;30.50;97.30
31133;DHT22;17779;50.942;4.026;2022-07-10T08:12:33;30.30;97.40
31133;DHT22;17779;50.942;4.026;2022-07-10T08:14:59;28.80;98.70
31133;DHT22;17779;50.942;4.026;2022-07-10T08:17:25;28.10;99.60
31133;DHT22;17779;50.942;4.026;2022-07-10T08:19:51;29.20;98.80
31133;DHT22;17779;50.942;4.026;2022-07-10T08:22:17;30.00;96.70
31133;DHT22;17779;50.942;4.026;2022-07-10T08:24:43;30.20;96.50
31133;DHT22;17779;50.942;4.026;2022-07-10T08:27:08;30.00;96.10
31133;DHT22;17779;50.942;4.026;2022-07-10T08:29:34;29.60;95.90
31133;DHT22;17779;50.942;4.026;2022-07-10T08:32:00;28.40;97.30
31133;DHT22;17779;50.942;4.026;2022-07-10T08:34:26;28.00;97.80
31133;DHT22;17779;50.942;4.026;2022-07-10T08:36:55;27.70;98.30
31133;DHT22;17779;50.942;4.026;2022-07-10T08:39:21;26.60;99.90
31133;DHT22;17779;50.942;4.026;2022-07-10T08:41:47;26.20;99.90
31133;DHT22;17779;50.942;4.026;2022-07-10T08:44:16;26.30;99.90
31133;DHT22;17779;50.942;4.026;2022-07-10T08:46:43;26.40;99.90
31133;DHT22;17779;50.942;4.026;2022-07-10T08:49:09;26.90;99.90
31133;DHT22;17779;50.942;4.026;2022-07-10T08:51:37;27.70;99.40
31133;DHT22;17779;50.942;4.026;2022-07-10T08:54:06;26.70;99.90
31133;DHT22;17779;50.942;4.026;2022-07-10T08:56:32;26.60;99.90
31133;DHT22;17779;50.942;4.026;2022-07-10T08:58:58;26.40;99.90
31133;DHT22;17779;50.942;4.026;2022-07-10T09:01:24;26.50;99.90
31133;DHT22;17779;50.942;4.026;2022-07-10T09:03:50;27.00;99.90
31133;DHT22;17779;50.942;4.026;2022-07-10T09:06:16;27.00;99.90
31133;DHT22;17779;50.942;4.026;2022-07-10T09:08:59;26.50;99.90
31133;DHT22;17779;50.942;4.026;2022-07-10T09:11:25;26.40;99.90
31133;DHT22;17779;50.942;4.026;2022-07-10T09:13:58;26.50;99.90
31133;DHT22;17779;50.942;4.026;2022-07-10T09:16:26;26.00;99.90
31133;DHT22;17779;50.942;4.026;2022-07-10T09:18:52;25.60;99.90
31133;DHT22;17779;50.942;4.026;2022-07-10T09:21:18;25.90;99.90
31133;DHT22;17779;50.942;4.026;2022-07-10T09:23:44;26.80;99.90
31133;DHT22;17779;50.942;4.026;2022-07-10T09:26:09;26.80;99.90
31133;DHT22;17779;50.942;4.026;2022-07-10T09:28:35;27.00;99.90
31133;DHT22;17779;50.942;4.026;2022-07-10T09:31:01;27.00;99.90
31133;DHT22;17779;50.942;4.026;2022-07-10T09:33:27;27.50;99.90
31133;DHT22;17779;50.942;4.026;2022-07-10T09:35:57;28.80;99.50
31133;DHT22;17779;50.942;4.026;2022-07-10T09:41:11;29.10;98.00
31133;DHT22;17779;50.942;4.026;2022-07-10T09:43:53;29.30;98.80
31133;DHT22;17779;50.942;4.026;2022-07-10T09:46:20;29.50;97.60
31133;DHT22;17779;50.942;4.026;2022-07-10T09:48:46;29.90;97.50
31133;DHT22;17779;50.942;4.026;2022-07-10T09:51:12;30.50;96.20
31133;DHT22;17779;50.942;4.026;2022-07-10T09:53:39;31.00;95.40
31133;DHT22;17779;50.942;4.026;2022-07-10T09:56:08;30.90;94.90
31133;DHT22;17779;50.942;4.026;2022-07-10T09:58:34;30.40;95.50
31133;DHT22;17779;50.942;4.026;2022-07-10T10:01:07;30.90;95.10
31133;DHT22;17779;50.942;4.026;2022-07-10T10:03:37;32.30;93.30
31133;DHT22;17779;50.942;4.026;2022-07-10T10:06:04;32.50;91.70
31133;DHT22;17779;50.942;4.026;2022-07-10T10:08:42;32.10;92.40
31133;DHT22;17779;50.942;4.026;2022-07-10T10:11:09;31.20;92.50
31133;DHT22;17779;50.942;4.026;2022-07-10T10:13:39;31.00;93.20
31133;DHT22;17779;50.942;4.026;2022-07-10T10:16:04;30.00;94.30
31133;DHT22;17779;50.942;4.026;2022-07-10T10:18:33;30.30;93.30
31133;DHT22;17779;50.942;4.026;2022-07-10T10:20:59;30.70;93.20
31133;DHT22;17779;50.942;4.026;2022-07-10T10:23:26;31.80;92.10
31133;DHT22;17779;50.942;4.026;2022-07-10T10:25:56;32.00;91.40
31133;DHT22;17779;50.942;4.026;2022-07-10T10:28:23;32.50;90.50
31133;DHT22;17779;50.942;4.026;2022-07-10T10:30:50;32.30;90.70
31133;DHT22;17779;50.942;4.026;2022-07-10T10:35:58;32.20;91.00
31133;DHT22;17779;50.942;4.026;2022-07-10T10:38:23;30.10;93.00
31133;DHT22;17779;50.942;4.026;2022-07-10T10:40:49;30.10;92.80
31133;DHT22;17779;50.942;4.026;2022-07-10T10:43:17;30.10;93.30
31133;DHT22;17779;50.942;4.026;2022-07-10T10:45:43;31.70;91.60
31133;DHT22;17779;50.942;4.026;2022-07-10T10:48:10;33.30;90.30
31133;DHT22;17779;50.942;4.026;2022-07-10T10:50:53;34.30;87.90
31133;DHT22;17779;50.942;4.026;2022-07-10T10:53:22;32.70;88.40
31133;DHT22;17779;50.942;4.026;2022-07-10T10:58:36;29.80;92.20
31133;DHT22;17779;50.942;4.026;2022-07-10T11:01:05;28.70;93.90
31133;DHT22;17779;50.942;4.026;2022-07-10T11:06:40;28.90;93.80
31133;DHT22;17779;50.942;4.026;2022-07-10T11:12:00;28.30;94.30
31133;DHT22;17779;50.942;4.026;2022-07-10T11:14:27;27.80;95.40
31133;DHT22;17779;50.942;4.026;2022-07-10T11:16:54;28.50;94.90
31133;DHT22;17779;50.942;4.026;2022-07-10T11:19:21;29.00;94.10
31133;DHT22;17779;50.942;4.026;2022-07-10T11:21:47;29.40;93.40
31133;DHT22;17779;50.942;4.026;2022-07-10T11:29:17;29.30;93.20
31133;DHT22;17779;50.942;4.026;2022-07-10T11:31:43;28.80;94.20
31133;DHT22;17779;50.942;4.026;2022-07-10T11:34:17;28.70;95.00
31133;DHT22;17779;50.942;4.026;2022-07-10T11:36:43;29.60;94.30
31133;DHT22;17779;50.942;4.026;2022-07-10T11:39:08;28.80;94.40
31133;DHT22;17779;50.942;4.026;2022-07-10T11:41:41;28.30;95.20
31133;DHT22;17779;50.942;4.026;2022-07-10T11:44:12;27.90;95.50
31133;DHT22;17779;50.942;4.026;2022-07-10T11:46:38;28.10;95.40
31133;DHT22;17779;50.942;4.026;2022-07-10T11:49:04;28.50;95.60
31133;DHT22;17779;50.942;4.026;2022-07-10T11:51:35;29.50;94.40
31133;DHT22;17779;50.942;4.026;2022-07-10T11:54:03;29.50;94.10
31133;DHT22;17779;50.942;4.026;2022-07-10T11:56:30;29.60;93.80
31133;DHT22;17779;50.942;4.026;2022-07-10T11:59:04;30.70;92.50
31133;DHT22;17779;50.942;4.026;2022-07-10T12:01:30;32.00;91.50
31133;DHT22;17779;50.942;4.026;2022-07-10T12:03:59;30.60;91.60
31133;DHT22;17779;50.942;4.026;2022-07-10T12:06:25;30.20;92.20
31133;DHT22;17779;50.942;4.026;2022-07-10T12:08:51;30.40;92.40
31133;DHT22;17779;50.942;4.026;2022-07-10T12:11:17;29.70;93.30
31133;DHT22;17779;50.942;4.026;2022-07-10T12:13:44;29.10;94.50
31133;DHT22;17779;50.942;4.026;2022-07-10T12:16:10;29.40;94.50
31133;DHT22;17779;50.942;4.026;2022-07-10T12:18:36;29.30;94.10
31133;DHT22;17779;50.942;4.026;2022-07-10T12:21:02;29.50;93.90
31133;DHT22;17779;50.942;4.026;2022-07-10T12:23:29;29.40;94.20
31133;DHT22;17779;50.942;4.026;2022-07-10T12:25:55;29.60;94.00
31133;DHT22;17779;50.942;4.026;2022-07-10T12:28:22;29.40;94.40
31133;DHT22;17779;50.942;4.026;2022-07-10T12:30:48;29.30;95.30
31133;DHT22;17779;50.942;4.026;2022-07-10T12:33:19;29.40;94.60
31133;DHT22;17779;50.942;4.026;2022-07-10T12:35:49;28.90;94.20
31133;DHT22;17779;50.942;4.026;2022-07-10T12:38:18;29.10;95.00
31133;DHT22;17779;50.942;4.026;2022-07-10T12:40:44;29.70;94.00
31133;DHT22;17779;50.942;4.026;2022-07-10T12:43:10;29.20;94.60
31133;DHT22;17779;50.942;4.026;2022-07-10T12:45:37;28.90;94.80
31133;DHT22;17779;50.942;4.026;2022-07-10T12:48:04;28.40;95.60
31133;DHT22;17779;50.942;4.026;2022-07-10T12:50:31;28.00;96.50
31133;DHT22;17779;50.942;4.026;2022-07-10T12:53:07;27.80;96.50
31133;DHT22;17779;50.942;4.026;2022-07-10T12:55:37;28.20;96.20
31133;DHT22;17779;50.942;4.026;2022-07-10T12:58:07;28.00;96.00
31133;DHT22;17779;50.942;4.026;2022-07-10T13:00:55;28.10;96.40
31133;DHT22;17779;50.942;4.026;2022-07-10T13:03:20;27.90;96.80
31133;DHT22;17779;50.942;4.026;2022-07-10T13:05:48;27.40;97.40
31133;DHT22;17779;50.942;4.026;2022-07-10T13:08:17;27.20;97.60
31133;DHT22;17779;50.942;4.026;2022-07-10T13:10:54;27.30;97.10
31133;DHT22;17779;50.942;4.026;2022-07-10T13:13:20;27.50;96.70
31133;DHT22;17779;50.942;4.026;2022-07-10T13:15:47;27.70;96.50
31133;DHT22;17779;50.942;4.026;2022-07-10T13:18:17;28.20;96.70
31133;DHT22;17779;50.942;4.026;2022-07-10T13:20:43;28.10;96.40
31133;DHT22;17779;50.942;4.026;2022-07-10T13:23:09;28.10;96.50
31133;DHT22;17779;50.942;4.026;2022-07-10T13:25:38;27.90;97.00
31133;DHT22;17779;50.942;4.026;2022-07-10T13:28:04;27.80;97.50
31133;DHT22;17779;50.942;4.026;2022-07-10T13:30:30;28.00;97.00
31133;DHT22;17779;50.942;4.026;2022-07-10T13:32:56;27.80;97.00
31133;DHT22;17779;50.942;4.026;2022-07-10T13:35:22;27.50;96.50
31133;DHT22;17779;50.942;4.026;2022-07-10T13:37:48;28.20;96.10
31133;DHT22;17779;50.942;4.026;2022-07-10T13:40:14;28.30;96.20
31133;DHT22;17779;50.942;4.026;2022-07-10T13:42:40;27.90;96.50
31133;DHT22;17779;50.942;4.026;2022-07-10T13:45:06;27.80;96.50
31133;DHT22;17779;50.942;4.026;2022-07-10T13:47:33;28.00;96.30
31133;DHT22;17779;50.942;4.026;2022-07-10T13:49:59;27.60;96.20
31133;DHT22;17779;50.942;4.026;2022-07-10T13:52:25;27.00;97.20
31133;DHT22;17779;50.942;4.026;2022-07-10T13:54:51;26.50;98.10
31133;DHT22;17779;50.942;4.026;2022-07-10T13:57:16;26.30;98.90
31133;DHT22;17779;50.942;4.026;2022-07-10T13:59:42;26.50;99.10
31133;DHT22;17779;50.942;4.026;2022-07-10T14:02:08;26.50;98.50
31133;DHT22;17779;50.942;4.026;2022-07-10T14:04:34;26.70;98.60
31133;DHT22;17779;50.942;4.026;2022-07-10T14:07:00;26.50;99.20
31133;DHT22;17779;50.942;4.026;2022-07-10T14:09:25;26.50;99.00
31133;DHT22;17779;50.942;4.026;2022-07-10T14:11:52;26.40;98.40
31133;DHT22;17779;50.942;4.026;2022-07-10T14:14:18;26.40;98.90
31133;DHT22;17779;50.942;4.026;2022-07-10T14:16:43;26.60;99.00
31133;DHT22;17779;50.942;4.026;2022-07-10T14:19:09;26.30;99.00
31133;DHT22;17779;50.942;4.026;2022-07-10T14:21:35;25.90;99.80
31133;DHT22;17779;50.942;4.026;2022-07-10T14:24:01;25.70;99.90
31133;DHT22;17779;50.942;4.026;2022-07-10T14:26:27;25.80;99.90
31133;DHT22;17779;50.942;4.026;2022-07-10T14:28:53;25.90;99.90
31133;DHT22;17779;50.942;4.026;2022-07-10T14:31:20;26.30;99.90
31133;DHT22;17779;50.942;4.026;2022-07-10T14:33:46;26.20;99.90
31133;DHT22;17779;50.942;4.026;2022-07-10T14:36:12;26.30;99.90
31133;DHT22;17779;50.942;4.026;2022-07-10T14:38:37;26.20;99.90
31133;DHT22;17779;50.942;4.026;2022-07-10T14:41:03;26.10;99.90
31133;DHT22;17779;50.942;4.026;2022-07-10T14:43:31;25.80;99.90
31133;DHT22;17779;50.942;4.026;2022-07-10T14:45:59;25.60;99.90
31133;DHT22;17779;50.942;4.026;2022-07-10T14:48:25;25.70;99.90
31133;DHT22;17779;50.942;4.026;2022-07-10T14:50:51;26.00;99.90
31133;DHT22;17779;50.942;4.026;2022-07-10T14:53:17;25.90;99.90
31133;DHT22;17779;50.942;4.026;2022-07-10T14:55:43;25.70;99.90
31133;DHT22;17779;50.942;4.026;2022-07-10T14:58:08;25.50;99.90
31133;DHT22;17779;50.942;4.026;2022-07-10T15:00:34;25.50;99.90
31133;DHT22;17779;50.942;4.026;2022-07-10T15:03:01;25.60;99.90
31133;DHT22;17779;50.942;4.026;2022-07-10T15:05:27;25.70;99.90
31133;DHT22;17779;50.942;4.026;2022-07-10T15:07:52;25.70;99.90
31133;DHT22;17779;50.942;4.026;2022-07-10T15:10:18;25.80;99.90
31133;DHT22;17779;50.942;4.026;2022-07-10T15:12:45;25.80;99.90
31133;DHT22;17779;50.942;4.026;2022-07-10T15:15:11;25.50;99.90
31133;DHT22;17779;50.942;4.026;2022-07-10T15:17:37;25.50;99.90
31133;DHT22;17779;50.942;4.026;2022-07-10T15:20:03;25.10;99.90
31133;DHT22;17779;50.942;4.026;2022-07-10T15:22:29;25.10;99.90
31133;DHT22;17779;50.942;4.026;2022-07-10T15:24:56;25.20;99.90
31133;DHT22;17779;50.942;4.026;2022-07-10T15:27:22;25.10;99.90
31133;DHT22;17779;50.942;4.026;2022-07-10T15:29:48;25.10;99.90
31133;DHT22;17779;50.942;4.026;2022-07-10T15:32:14;25.10;99.90
31133;DHT22;17779;50.942;4.026;2022-07-10T15:34:40;25.20;99.90
31133;DHT22;17779;50.942;4.026;2022-07-10T15:37:05;25.10;99.90
31133;DHT22;17779;50.942;4.026;2022-07-10T15:39:31;24.80;99.90
31133;DHT22;17779;50.942;4.026;2022-07-10T15:42:07;24.80;99.90
31133;DHT22;17779;50.942;4.026;2022-07-10T15:44:33;24.90;99.90
31133;DHT22;17779;50.942;4.026;2022-07-10T15:46:59;24.90;99.90